AIRPORT METAR

METAR FOR LIRQ
ADDS - METARS form results

(0635 UTC 27 January 2022)
Data provider http://aviationweather.gov/metar/data/
 
METAR text: LIRQ 270620Z VRB02KT 6000 BKN035 03/03 Q1027
Conditions at: LIRQ (FIRENZE/PERETOLA, IT) observed 0620 UTC 27 January 2022
Temperature: 3.0°C (37°F)
Dewpoint: 3.0°C (37°F) [RH = 100%]
Pressure (altimeter): 30.32 inches Hg (1027.0 mb)
Winds: variable direction winds at 2 MPH (2 knots; 1.0 m/s)
Visibility: 4 miles ( 6 km)
Ceiling: 3500 feet AGL
Clouds: broken clouds at 3500 feet AGL
Weather: no significant weather observed at this time

METAR text: LIRQ 270550Z VRB01KT 8000 MIFG BKN035 03/03 Q1027
Conditions at: LIRQ (FIRENZE/PERETOLA, IT) observed 0550 UTC 27 January 2022
Temperature: 3.0°C (37°F)
Dewpoint: 3.0°C (37°F) [RH = 100%]
Pressure (altimeter): 30.32 inches Hg (1027.0 mb)
Winds: variable direction winds at 1 MPH (1 knots; 0.5 m/s)
Visibility: 5 miles ( 8 km)
Ceiling: 3500 feet AGL
Clouds: broken clouds at 3500 feet AGL
Weather: MIFG  (shallow fog)

Forecast for: LIRQ (FIRENZE/PERETOLA, IT)
Text: TAF LIRQ 270500Z 2706/2806 VRB05KT 9999 FEW020 SCT040
Forecast period: 0600 UTC 27 January 2022 to 0600 UTC 28 January 2022
Forecast type: FROM: standard forecast or significant change
Winds: variable direction winds at 6 MPH (5 knots; 2.6 m/s)
Visibility: 6 or more miles (10+ km)
Ceiling: at least 12,000 feet AGL
Clouds: few clouds at 2000 feet AGL
scattered clouds at 4000 feet AGL
Weather: no significant weather forecast for this period
Text: TEMPO 2706/2708 2000 BR BKN006
Forecast period: 0600 to 0800 UTC 27 January 2022
Forecast type: TEMPORARY: The following changes expected for less than half the time period
Visibility: 1.24 miles (2.00 km)
Ceiling: 600 feet AGL
Clouds: broken clouds at 600 feet AGL
Weather: BR  (mist)

AIRPORT MAP

 RUNWAY INFORMATION
Runway 05 Runway length 5425 ft Runway width 98 ft
Runway elevation 123 ft Runway displaced threshold 492 ft Runway heading 48
Runway 23 Runway length 5425 ft Runway width 98 ft
Runway elevation 132 ft Runway displaced threshold 2287 ft Runway heading 228

 AIRPORT FREQUENCIES
Type APP Name APP Frequency 126.075 MHZ
Type ATIS Name ATIS Frequency 129.35 MHZ
Type TWR Name FIRENZE TW Frequency 118.3 MHZ

 AIRPORT NEAR NAVIGATION AIDS
Type VOR-DME Name Peretola Frequency 112500 KHZ



© 2020 - Royal Sky Service, All Right Reserved.